sensor_id;sensor_type;location;lat;lon;timestamp;temperature;humidity
22130;DHT22;11231;50.746;4.272;2023-12-28T00:01:26;11.60;99.90
22130;DHT22;11231;50.746;4.272;2023-12-28T00:03:52;11.70;99.90
22130;DHT22;11231;50.746;4.272;2023-12-28T00:06:18;11.80;99.90
22130;DHT22;11231;50.746;4.272;2023-12-28T00:08:43;11.80;99.90
22130;DHT22;11231;50.746;4.272;2023-12-28T00:11:09;11.80;99.90
22130;DHT22;11231;50.746;4.272;2023-12-28T00:13:35;11.80;99.90
22130;DHT22;11231;50.746;4.272;2023-12-28T00:16:01;11.70;99.90
22130;DHT22;11231;50.746;4.272;2023-12-28T00:18:27;11.70;99.90
22130;DHT22;11231;50.746;4.272;2023-12-28T00:20:53;11.70;99.90
22130;DHT22;11231;50.746;4.272;2023-12-28T00:23:18;11.70;99.90
22130;DHT22;11231;50.746;4.272;2023-12-28T00:25:46;11.80;99.90
22130;DHT22;11231;50.746;4.272;2023-12-28T00:28:12;11.80;99.90
22130;DHT22;11231;50.746;4.272;2023-12-28T00:30:37;11.90;99.90
22130;DHT22;11231;50.746;4.272;2023-12-28T00:33:04;11.90;99.90
22130;DHT22;11231;50.746;4.272;2023-12-28T00:35:32;11.80;99.90
22130;DHT22;11231;50.746;4.272;2023-12-28T00:37:58;11.80;99.90
22130;DHT22;11231;50.746;4.272;2023-12-28T00:40:24;11.80;99.90
22130;DHT22;11231;50.746;4.272;2023-12-28T00:42:49;11.80;99.90
22130;DHT22;11231;50.746;4.272;2023-12-28T00:45:15;11.90;99.90
22130;DHT22;11231;50.746;4.272;2023-12-28T00:47:41;11.80;99.90
22130;DHT22;11231;50.746;4.272;2023-12-28T00:50:09;11.80;99.90
22130;DHT22;11231;50.746;4.272;2023-12-28T00:52:37;11.80;99.90
22130;DHT22;11231;50.746;4.272;2023-12-28T00:55:04;11.80;99.90
22130;DHT22;11231;50.746;4.272;2023-12-28T00:57:30;11.80;99.90
22130;DHT22;11231;50.746;4.272;2023-12-28T00:59:56;11.80;99.90
22130;DHT22;11231;50.746;4.272;2023-12-28T01:02:21;11.80;99.90
22130;DHT22;11231;50.746;4.272;2023-12-28T01:04:47;11.80;99.90
22130;DHT22;11231;50.746;4.272;2023-12-28T01:07:13;11.80;99.90
22130;DHT22;11231;50.746;4.272;2023-12-28T01:09:39;11.80;99.90
22130;DHT22;11231;50.746;4.272;2023-12-28T01:12:05;11.80;99.90
22130;DHT22;11231;50.746;4.272;2023-12-28T01:14:32;11.80;99.90
22130;DHT22;11231;50.746;4.272;2023-12-28T01:16:58;11.80;99.90
22130;DHT22;11231;50.746;4.272;2023-12-28T01:19:24;11.80;99.90
22130;DHT22;11231;50.746;4.272;2023-12-28T01:21:50;11.80;99.90
22130;DHT22;11231;50.746;4.272;2023-12-28T01:24:16;11.80;99.90
22130;DHT22;11231;50.746;4.272;2023-12-28T01:26:42;11.80;99.90
22130;DHT22;11231;50.746;4.272;2023-12-28T01:29:07;11.70;99.90
22130;DHT22;11231;50.746;4.272;2023-12-28T01:31:34;11.70;99.90
22130;DHT22;11231;50.746;4.272;2023-12-28T01:34:00;11.70;99.90
22130;DHT22;11231;50.746;4.272;2023-12-28T01:36:25;11.70;99.90
22130;DHT22;11231;50.746;4.272;2023-12-28T01:38:52;11.70;99.90
22130;DHT22;11231;50.746;4.272;2023-12-28T01:41:18;11.70;99.90
22130;DHT22;11231;50.746;4.272;2023-12-28T01:43:44;11.80;99.90
22130;DHT22;11231;50.746;4.272;2023-12-28T01:46:28;11.80;99.90
22130;DHT22;11231;50.746;4.272;2023-12-28T01:48:54;11.80;99.90
22130;DHT22;11231;50.746;4.272;2023-12-28T01:51:21;11.70;99.90
22130;DHT22;11231;50.746;4.272;2023-12-28T01:53:49;11.70;99.90
22130;DHT22;11231;50.746;4.272;2023-12-28T01:56:18;11.70;99.90
22130;DHT22;11231;50.746;4.272;2023-12-28T01:58:46;11.70;99.90
22130;DHT22;11231;50.746;4.272;2023-12-28T02:01:14;11.70;99.90
22130;DHT22;11231;50.746;4.272;2023-12-28T02:03:40;11.70;99.90
22130;DHT22;11231;50.746;4.272;2023-12-28T02:06:09;11.70;99.90
22130;DHT22;11231;50.746;4.272;2023-12-28T02:08:34;11.70;99.90
22130;DHT22;11231;50.746;4.272;2023-12-28T02:11:00;11.60;99.90
22130;DHT22;11231;50.746;4.272;2023-12-28T02:13:26;11.60;99.90
22130;DHT22;11231;50.746;4.272;2023-12-28T02:15:57;11.70;99.90
22130;DHT22;11231;50.746;4.272;2023-12-28T02:18:30;11.70;99.90
22130;DHT22;11231;50.746;4.272;2023-12-28T02:21:01;11.70;99.90
22130;DHT22;11231;50.746;4.272;2023-12-28T02:23:27;11.80;99.90
22130;DHT22;11231;50.746;4.272;2023-12-28T02:25:53;11.80;99.90
22130;DHT22;11231;50.746;4.272;2023-12-28T02:28:19;11.80;99.90
22130;DHT22;11231;50.746;4.272;2023-12-28T02:30:45;11.70;99.90
22130;DHT22;11231;50.746;4.272;2023-12-28T02:33:18;11.70;99.90
22130;DHT22;11231;50.746;4.272;2023-12-28T02:36:06;11.70;99.90
22130;DHT22;11231;50.746;4.272;2023-12-28T02:38:37;11.70;99.90
22130;DHT22;11231;50.746;4.272;2023-12-28T02:41:04;11.70;99.90
22130;DHT22;11231;50.746;4.272;2023-12-28T02:43:30;11.80;99.90
22130;DHT22;11231;50.746;4.272;2023-12-28T02:45:56;11.80;99.90
22130;DHT22;11231;50.746;4.272;2023-12-28T02:48:22;11.80;99.90
22130;DHT22;11231;50.746;4.272;2023-12-28T02:50:51;11.80;99.90
22130;DHT22;11231;50.746;4.272;2023-12-28T02:53:17;11.70;99.90
22130;DHT22;11231;50.746;4.272;2023-12-28T02:55:43;11.80;99.90
22130;DHT22;11231;50.746;4.272;2023-12-28T02:58:08;11.90;99.90
22130;DHT22;11231;50.746;4.272;2023-12-28T03:00:34;12.00;99.90
22130;DHT22;11231;50.746;4.272;2023-12-28T03:03:00;11.90;99.90
22130;DHT22;11231;50.746;4.272;2023-12-28T03:05:26;11.90;99.90
22130;DHT22;11231;50.746;4.272;2023-12-28T03:07:52;11.90;99.90
22130;DHT22;11231;50.746;4.272;2023-12-28T03:10:21;11.90;99.90
22130;DHT22;11231;50.746;4.272;2023-12-28T03:12:46;11.80;99.90
22130;DHT22;11231;50.746;4.272;2023-12-28T03:15:13;11.90;99.90
22130;DHT22;11231;50.746;4.272;2023-12-28T03:17:38;11.90;99.90
22130;DHT22;11231;50.746;4.272;2023-12-28T03:20:05;11.90;99.90
22130;DHT22;11231;50.746;4.272;2023-12-28T03:22:31;11.90;99.90
22130;DHT22;11231;50.746;4.272;2023-12-28T03:24:56;11.90;99.90
22130;DHT22;11231;50.746;4.272;2023-12-28T03:27:22;12.00;99.90
22130;DHT22;11231;50.746;4.272;2023-12-28T03:29:48;12.00;99.90
22130;DHT22;11231;50.746;4.272;2023-12-28T03:32:14;12.10;99.90
22130;DHT22;11231;50.746;4.272;2023-12-28T03:34:40;12.00;99.90
22130;DHT22;11231;50.746;4.272;2023-12-28T03:37:05;12.00;99.90
22130;DHT22;11231;50.746;4.272;2023-12-28T03:39:31;11.90;99.90
22130;DHT22;11231;50.746;4.272;2023-12-28T03:41:58;11.80;99.90
22130;DHT22;11231;50.746;4.272;2023-12-28T03:44:24;11.80;99.90
22130;DHT22;11231;50.746;4.272;2023-12-28T03:46:51;11.90;99.90
22130;DHT22;11231;50.746;4.272;2023-12-28T03:49:20;11.80;99.90
22130;DHT22;11231;50.746;4.272;2023-12-28T03:51:49;11.80;99.90
22130;DHT22;11231;50.746;4.272;2023-12-28T03:54:19;11.70;99.90
22130;DHT22;11231;50.746;4.272;2023-12-28T03:56:46;11.70;99.90
22130;DHT22;11231;50.746;4.272;2023-12-28T03:59:13;11.70;99.90
22130;DHT22;11231;50.746;4.272;2023-12-28T04:01:40;11.70;99.90
22130;DHT22;11231;50.746;4.272;2023-12-28T04:04:06;11.80;99.90
22130;DHT22;11231;50.746;4.272;2023-12-28T04:06:32;11.90;99.90
22130;DHT22;11231;50.746;4.272;2023-12-28T04:08:57;12.00;99.90
22130;DHT22;11231;50.746;4.272;2023-12-28T04:11:23;12.00;99.90
22130;DHT22;11231;50.746;4.272;2023-12-28T04:13:49;12.00;99.90
22130;DHT22;11231;50.746;4.272;2023-12-28T04:16:16;12.10;99.90
22130;DHT22;11231;50.746;4.272;2023-12-28T04:18:42;12.10;99.90
22130;DHT22;11231;50.746;4.272;2023-12-28T04:21:09;12.00;99.90
22130;DHT22;11231;50.746;4.272;2023-12-28T04:23:36;12.00;99.90
22130;DHT22;11231;50.746;4.272;2023-12-28T04:26:02;12.00;99.90
22130;DHT22;11231;50.746;4.272;2023-12-28T04:28:28;12.10;99.90
22130;DHT22;11231;50.746;4.272;2023-12-28T04:30:54;12.00;99.90
22130;DHT22;11231;50.746;4.272;2023-12-28T04:33:20;12.00;99.90
22130;DHT22;11231;50.746;4.272;2023-12-28T04:35:46;12.00;99.90
22130;DHT22;11231;50.746;4.272;2023-12-28T04:38:12;11.90;99.90
22130;DHT22;11231;50.746;4.272;2023-12-28T04:40:38;11.90;99.90
22130;DHT22;11231;50.746;4.272;2023-12-28T04:43:04;11.90;99.90
22130;DHT22;11231;50.746;4.272;2023-12-28T04:45:30;11.70;99.90
22130;DHT22;11231;50.746;4.272;2023-12-28T04:47:57;11.70;99.90
22130;DHT22;11231;50.746;4.272;2023-12-28T04:50:23;11.70;99.90
22130;DHT22;11231;50.746;4.272;2023-12-28T04:52:48;11.70;99.90
22130;DHT22;11231;50.746;4.272;2023-12-28T04:55:15;11.60;99.90
22130;DHT22;11231;50.746;4.272;2023-12-28T04:57:43;11.50;99.90
22130;DHT22;11231;50.746;4.272;2023-12-28T05:00:10;11.50;99.90
22130;DHT22;11231;50.746;4.272;2023-12-28T05:02:36;11.60;99.90
22130;DHT22;11231;50.746;4.272;2023-12-28T05:05:01;11.60;99.90
22130;DHT22;11231;50.746;4.272;2023-12-28T05:07:27;11.50;99.90
22130;DHT22;11231;50.746;4.272;2023-12-28T05:09:53;11.40;99.90
22130;DHT22;11231;50.746;4.272;2023-12-28T05:12:18;11.40;99.90
22130;DHT22;11231;50.746;4.272;2023-12-28T05:14:44;11.40;99.90
22130;DHT22;11231;50.746;4.272;2023-12-28T05:17:10;11.40;99.90
22130;DHT22;11231;50.746;4.272;2023-12-28T05:19:36;11.40;99.90
22130;DHT22;11231;50.746;4.272;2023-12-28T05:22:02;11.40;99.90
22130;DHT22;11231;50.746;4.272;2023-12-28T05:24:29;11.30;99.90
22130;DHT22;11231;50.746;4.272;2023-12-28T05:26:55;11.30;99.90
22130;DHT22;11231;50.746;4.272;2023-12-28T05:29:21;11.30;99.90
22130;DHT22;11231;50.746;4.272;2023-12-28T05:31:47;11.30;99.90
22130;DHT22;11231;50.746;4.272;2023-12-28T05:34:12;11.40;99.90
22130;DHT22;11231;50.746;4.272;2023-12-28T05:36:38;11.40;99.90
22130;DHT22;11231;50.746;4.272;2023-12-28T05:39:07;11.50;99.90
22130;DHT22;11231;50.746;4.272;2023-12-28T05:41:35;11.70;99.90
22130;DHT22;11231;50.746;4.272;2023-12-28T05:44:00;11.70;99.90
22130;DHT22;11231;50.746;4.272;2023-12-28T05:46:26;11.80;99.90
22130;DHT22;11231;50.746;4.272;2023-12-28T05:48:52;11.80;99.90
22130;DHT22;11231;50.746;4.272;2023-12-28T05:51:18;11.80;99.90
22130;DHT22;11231;50.746;4.272;2023-12-28T05:53:44;11.90;99.90
22130;DHT22;11231;50.746;4.272;2023-12-28T05:56:10;11.90;99.90
22130;DHT22;11231;50.746;4.272;2023-12-28T05:58:36;11.90;99.90
22130;DHT22;11231;50.746;4.272;2023-12-28T06:01:02;11.80;99.90
22130;DHT22;11231;50.746;4.272;2023-12-28T06:03:31;11.80;99.90
22130;DHT22;11231;50.746;4.272;2023-12-28T06:05:56;11.70;99.90
22130;DHT22;11231;50.746;4.272;2023-12-28T06:08:23;11.70;99.90
22130;DHT22;11231;50.746;4.272;2023-12-28T06:10:49;11.60;99.90
22130;DHT22;11231;50.746;4.272;2023-12-28T06:13:14;11.60;99.90
22130;DHT22;11231;50.746;4.272;2023-12-28T06:15:40;11.50;99.90
22130;DHT22;11231;50.746;4.272;2023-12-28T06:18:06;11.50;99.90
22130;DHT22;11231;50.746;4.272;2023-12-28T06:20:32;11.40;99.90
22130;DHT22;11231;50.746;4.272;2023-12-28T06:22:58;11.40;99.90
22130;DHT22;11231;50.746;4.272;2023-12-28T06:25:24;11.30;99.90
22130;DHT22;11231;50.746;4.272;2023-12-28T06:27:49;11.30;99.90
22130;DHT22;11231;50.746;4.272;2023-12-28T06:30:15;11.40;99.90
22130;DHT22;11231;50.746;4.272;2023-12-28T06:32:41;11.40;99.90
22130;DHT22;11231;50.746;4.272;2023-12-28T06:35:07;11.40;99.90
22130;DHT22;11231;50.746;4.272;2023-12-28T06:37:33;11.30;99.90
22130;DHT22;11231;50.746;4.272;2023-12-28T06:39:58;11.30;99.90
22130;DHT22;11231;50.746;4.272;2023-12-28T06:42:24;11.30;99.90
22130;DHT22;11231;50.746;4.272;2023-12-28T06:44:50;11.30;99.90
22130;DHT22;11231;50.746;4.272;2023-12-28T06:47:15;11.20;99.90
22130;DHT22;11231;50.746;4.272;2023-12-28T06:49:41;11.20;99.90
22130;DHT22;11231;50.746;4.272;2023-12-28T06:52:07;11.10;99.90
22130;DHT22;11231;50.746;4.272;2023-12-28T06:54:33;11.10;99.90
22130;DHT22;11231;50.746;4.272;2023-12-28T06:56:59;11.10;99.90
22130;DHT22;11231;50.746;4.272;2023-12-28T06:59:25;11.10;99.90
22130;DHT22;11231;50.746;4.272;2023-12-28T07:01:51;11.00;99.90
22130;DHT22;11231;50.746;4.272;2023-12-28T07:04:16;11.10;99.90
22130;DHT22;11231;50.746;4.272;2023-12-28T07:06:43;11.00;99.90
22130;DHT22;11231;50.746;4.272;2023-12-28T07:09:09;11.10;99.90
22130;DHT22;11231;50.746;4.272;2023-12-28T07:11:35;11.10;99.90
22130;DHT22;11231;50.746;4.272;2023-12-28T07:14:01;11.00;99.90
22130;DHT22;11231;50.746;4.272;2023-12-28T07:16:27;11.00;99.90
22130;DHT22;11231;50.746;4.272;2023-12-28T07:18:53;10.90;99.90
22130;DHT22;11231;50.746;4.272;2023-12-28T07:21:19;11.00;99.90
22130;DHT22;11231;50.746;4.272;2023-12-28T07:23:45;11.00;99.90
22130;DHT22;11231;50.746;4.272;2023-12-28T07:26:15;11.00;99.90
22130;DHT22;11231;50.746;4.272;2023-12-28T07:28:41;11.00;99.90
22130;DHT22;11231;50.746;4.272;2023-12-28T07:31:10;11.00;99.90
22130;DHT22;11231;50.746;4.272;2023-12-28T07:33:36;11.00;99.90
22130;DHT22;11231;50.746;4.272;2023-12-28T07:36:02;11.10;99.90
22130;DHT22;11231;50.746;4.272;2023-12-28T07:38:29;11.00;99.90
22130;DHT22;11231;50.746;4.272;2023-12-28T07:40:54;11.00;99.90
22130;DHT22;11231;50.746;4.272;2023-12-28T07:43:20;11.00;99.90
22130;DHT22;11231;50.746;4.272;2023-12-28T07:45:46;11.00;99.90
22130;DHT22;11231;50.746;4.272;2023-12-28T07:48:12;10.90;99.90
22130;DHT22;11231;50.746;4.272;2023-12-28T07:50:37;11.00;99.90
22130;DHT22;11231;50.746;4.272;2023-12-28T07:53:03;11.10;99.90
22130;DHT22;11231;50.746;4.272;2023-12-28T07:55:29;11.10;99.90
22130;DHT22;11231;50.746;4.272;2023-12-28T07:57:55;11.10;99.90
22130;DHT22;11231;50.746;4.272;2023-12-28T08:00:20;11.20;99.90
22130;DHT22;11231;50.746;4.272;2023-12-28T08:02:46;11.10;99.90
22130;DHT22;11231;50.746;4.272;2023-12-28T08:05:12;11.20;99.90
22130;DHT22;11231;50.746;4.272;2023-12-28T08:07:38;11.10;99.90
22130;DHT22;11231;50.746;4.272;2023-12-28T08:10:04;11.10;99.90
22130;DHT22;11231;50.746;4.272;2023-12-28T08:12:31;11.10;99.90
22130;DHT22;11231;50.746;4.272;2023-12-28T08:14:56;11.10;99.90
22130;DHT22;11231;50.746;4.272;2023-12-28T08:17:22;11.20;99.90
22130;DHT22;11231;50.746;4.272;2023-12-28T08:19:48;11.20;99.90
22130;DHT22;11231;50.746;4.272;2023-12-28T08:22:14;11.30;99.90
22130;DHT22;11231;50.746;4.272;2023-12-28T08:24:39;11.30;99.90
22130;DHT22;11231;50.746;4.272;2023-12-28T08:27:05;11.30;99.90
22130;DHT22;11231;50.746;4.272;2023-12-28T08:29:31;11.40;99.90
22130;DHT22;11231;50.746;4.272;2023-12-28T08:31:56;11.40;99.90
22130;DHT22;11231;50.746;4.272;2023-12-28T08:34:25;11.50;99.90
22130;DHT22;11231;50.746;4.272;2023-12-28T08:36:51;11.50;99.90
22130;DHT22;11231;50.746;4.272;2023-12-28T08:39:18;11.60;99.90
22130;DHT22;11231;50.746;4.272;2023-12-28T08:41:44;11.70;99.90
22130;DHT22;11231;50.746;4.272;2023-12-28T08:44:09;11.70;99.90
22130;DHT22;11231;50.746;4.272;2023-12-28T08:46:35;11.70;99.90
22130;DHT22;11231;50.746;4.272;2023-12-28T08:49:01;11.70;99.90
22130;DHT22;11231;50.746;4.272;2023-12-28T08:51:27;11.70;99.90
22130;DHT22;11231;50.746;4.272;2023-12-28T08:53:52;11.70;99.90
22130;DHT22;11231;50.746;4.272;2023-12-28T08:56:21;11.80;99.90
22130;DHT22;11231;50.746;4.272;2023-12-28T08:58:48;11.80;99.90
22130;DHT22;11231;50.746;4.272;2023-12-28T09:01:18;11.70;99.90
22130;DHT22;11231;50.746;4.272;2023-12-28T09:03:46;11.70;99.90
22130;DHT22;11231;50.746;4.272;2023-12-28T09:06:12;11.70;99.90
22130;DHT22;11231;50.746;4.272;2023-12-28T09:08:40;11.70;99.90
22130;DHT22;11231;50.746;4.272;2023-12-28T09:11:06;11.70;99.90
22130;DHT22;11231;50.746;4.272;2023-12-28T09:13:31;11.90;99.90
22130;DHT22;11231;50.746;4.272;2023-12-28T09:15:57;12.00;99.90
22130;DHT22;11231;50.746;4.272;2023-12-28T09:18:23;12.00;99.90
22130;DHT22;11231;50.746;4.272;2023-12-28T09:20:49;11.90;99.90
22130;DHT22;11231;50.746;4.272;2023-12-28T09:23:15;12.00;99.90
22130;DHT22;11231;50.746;4.272;2023-12-28T09:25:41;11.90;99.90
22130;DHT22;11231;50.746;4.272;2023-12-28T09:28:07;12.00;99.90
22130;DHT22;11231;50.746;4.272;2023-12-28T09:30:32;12.00;99.90
22130;DHT22;11231;50.746;4.272;2023-12-28T09:32:58;12.00;99.90
22130;DHT22;11231;50.746;4.272;2023-12-28T09:35:24;12.10;99.90
22130;DHT22;11231;50.746;4.272;2023-12-28T09:37:50;12.10;99.90
22130;DHT22;11231;50.746;4.272;2023-12-28T09:40:16;12.30;99.90
22130;DHT22;11231;50.746;4.272;2023-12-28T09:42:53;12.50;99.90
22130;DHT22;11231;50.746;4.272;2023-12-28T09:45:22;12.50;99.90
22130;DHT22;11231;50.746;4.272;2023-12-28T09:47:48;12.30;99.90
22130;DHT22;11231;50.746;4.272;2023-12-28T09:50:17;12.40;99.90
22130;DHT22;11231;50.746;4.272;2023-12-28T09:52:44;12.60;99.90
22130;DHT22;11231;50.746;4.272;2023-12-28T09:55:10;12.60;99.90
22130;DHT22;11231;50.746;4.272;2023-12-28T09:57:36;12.60;99.90
22130;DHT22;11231;50.746;4.272;2023-12-28T10:00:03;12.60;99.90
22130;DHT22;11231;50.746;4.272;2023-12-28T10:02:39;12.70;99.90
22130;DHT22;11231;50.746;4.272;2023-12-28T10:05:06;12.70;99.90
22130;DHT22;11231;50.746;4.272;2023-12-28T10:07:35;12.60;99.90
22130;DHT22;11231;50.746;4.272;2023-12-28T10:10:06;12.70;99.90
22130;DHT22;11231;50.746;4.272;2023-12-28T10:12:32;12.70;99.90
22130;DHT22;11231;50.746;4.272;2023-12-28T10:14:58;12.80;99.90
22130;DHT22;11231;50.746;4.272;2023-12-28T10:17:25;12.90;99.90
22130;DHT22;11231;50.746;4.272;2023-12-28T10:19:52;12.90;99.90
22130;DHT22;11231;50.746;4.272;2023-12-28T10:22:19;12.90;99.90
22130;DHT22;11231;50.746;4.272;2023-12-28T10:24:45;13.00;99.90
22130;DHT22;11231;50.746;4.272;2023-12-28T10:27:13;13.00;99.90
22130;DHT22;11231;50.746;4.272;2023-12-28T10:29:39;13.10;99.90
22130;DHT22;11231;50.746;4.272;2023-12-28T10:32:05;13.20;99.90
22130;DHT22;11231;50.746;4.272;2023-12-28T10:34:31;13.40;99.90
22130;DHT22;11231;50.746;4.272;2023-12-28T10:36:59;13.50;99.90
22130;DHT22;11231;50.746;4.272;2023-12-28T10:39:25;13.60;99.90
22130;DHT22;11231;50.746;4.272;2023-12-28T10:41:54;13.70;99.90
22130;DHT22;11231;50.746;4.272;2023-12-28T10:44:21;13.90;99.90
22130;DHT22;11231;50.746;4.272;2023-12-28T10:46:50;14.00;99.90
22130;DHT22;11231;50.746;4.272;2023-12-28T10:49:21;14.00;99.90
22130;DHT22;11231;50.746;4.272;2023-12-28T10:51:52;14.20;99.90
22130;DHT22;11231;50.746;4.272;2023-12-28T10:54:41;14.20;99.90
22130;DHT22;11231;50.746;4.272;2023-12-28T10:57:29;14.40;99.90
22130;DHT22;11231;50.746;4.272;2023-12-28T11:00:10;14.30;99.90
22130;DHT22;11231;50.746;4.272;2023-12-28T11:02:48;14.30;99.90
22130;DHT22;11231;50.746;4.272;2023-12-28T11:05:19;14.20;99.90
22130;DHT22;11231;50.746;4.272;2023-12-28T11:07:45;14.30;99.90
22130;DHT22;11231;50.746;4.272;2023-12-28T11:10:14;14.30;99.90
22130;DHT22;11231;50.746;4.272;2023-12-28T11:12:39;14.30;99.90
22130;DHT22;11231;50.746;4.272;2023-12-28T11:15:07;14.20;99.90
22130;DHT22;11231;50.746;4.272;2023-12-28T11:17:35;14.30;99.90
22130;DHT22;11231;50.746;4.272;2023-12-28T11:20:02;14.20;99.90
22130;DHT22;11231;50.746;4.272;2023-12-28T11:22:31;14.40;99.90
22130;DHT22;11231;50.746;4.272;2023-12-28T11:24:57;14.70;99.90
22130;DHT22;11231;50.746;4.272;2023-12-28T11:27:23;14.70;99.90
22130;DHT22;11231;50.746;4.272;2023-12-28T11:29:51;14.60;99.90
22130;DHT22;11231;50.746;4.272;2023-12-28T11:32:19;14.40;99.90
22130;DHT22;11231;50.746;4.272;2023-12-28T11:34:45;14.20;99.90
22130;DHT22;11231;50.746;4.272;2023-12-28T11:37:22;14.30;99.90
22130;DHT22;11231;50.746;4.272;2023-12-28T11:39:49;14.50;99.90
22130;DHT22;11231;50.746;4.272;2023-12-28T11:42:20;14.50;99.90
22130;DHT22;11231;50.746;4.272;2023-12-28T11:44:46;14.60;99.90
22130;DHT22;11231;50.746;4.272;2023-12-28T11:47:23;14.50;99.90
22130;DHT22;11231;50.746;4.272;2023-12-28T11:49:49;14.40;99.90
22130;DHT22;11231;50.746;4.272;2023-12-28T11:52:30;14.40;99.90
22130;DHT22;11231;50.746;4.272;2023-12-28T11:54:56;14.40;99.90
22130;DHT22;11231;50.746;4.272;2023-12-28T11:57:22;14.50;99.90
22130;DHT22;11231;50.746;4.272;2023-12-28T12:00:01;14.70;99.90
22130;DHT22;11231;50.746;4.272;2023-12-28T12:02:30;14.60;99.90
22130;DHT22;11231;50.746;4.272;2023-12-28T12:04:56;14.50;99.90
22130;DHT22;11231;50.746;4.272;2023-12-28T12:07:27;14.50;99.90
22130;DHT22;11231;50.746;4.272;2023-12-28T12:09:59;14.60;99.90
22130;DHT22;11231;50.746;4.272;2023-12-28T12:12:25;14.30;99.90
22130;DHT22;11231;50.746;4.272;2023-12-28T12:14:51;14.20;99.90
22130;DHT22;11231;50.746;4.272;2023-12-28T12:17:17;14.10;99.90
22130;DHT22;11231;50.746;4.272;2023-12-28T12:19:44;14.20;99.90
22130;DHT22;11231;50.746;4.272;2023-12-28T12:22:13;14.20;99.90
22130;DHT22;11231;50.746;4.272;2023-12-28T12:24:40;14.10;99.90
22130;DHT22;11231;50.746;4.272;2023-12-28T12:27:07;13.90;99.90
22130;DHT22;11231;50.746;4.272;2023-12-28T12:29:32;13.70;99.90
22130;DHT22;11231;50.746;4.272;2023-12-28T12:31:58;13.70;99.90
22130;DHT22;11231;50.746;4.272;2023-12-28T12:34:24;13.80;99.90
22130;DHT22;11231;50.746;4.272;2023-12-28T12:36:50;13.90;99.90
22130;DHT22;11231;50.746;4.272;2023-12-28T12:39:19;13.90;99.90
22130;DHT22;11231;50.746;4.272;2023-12-28T12:41:46;13.80;99.90
22130;DHT22;11231;50.746;4.272;2023-12-28T12:44:13;13.80;99.90
22130;DHT22;11231;50.746;4.272;2023-12-28T12:46:38;13.70;99.90
22130;DHT22;11231;50.746;4.272;2023-12-28T12:49:05;13.60;99.90
22130;DHT22;11231;50.746;4.272;2023-12-28T12:51:31;13.60;99.90
22130;DHT22;11231;50.746;4.272;2023-12-28T12:54:01;13.60;99.90
22130;DHT22;11231;50.746;4.272;2023-12-28T12:56:29;13.50;99.90
22130;DHT22;11231;50.746;4.272;2023-12-28T12:58:55;13.40;99.90
22130;DHT22;11231;50.746;4.272;2023-12-28T13:01:22;13.40;99.90
22130;DHT22;11231;50.746;4.272;2023-12-28T13:03:47;13.40;99.90
22130;DHT22;11231;50.746;4.272;2023-12-28T13:06:13;13.40;99.90
22130;DHT22;11231;50.746;4.272;2023-12-28T13:08:39;13.50;99.90
22130;DHT22;11231;50.746;4.272;2023-12-28T13:11:05;13.40;99.90
22130;DHT22;11231;50.746;4.272;2023-12-28T13:13:34;13.50;99.90
22130;DHT22;11231;50.746;4.272;2023-12-28T13:16:01;13.40;99.90
22130;DHT22;11231;50.746;4.272;2023-12-28T13:18:29;13.40;99.90
22130;DHT22;11231;50.746;4.272;2023-12-28T13:20:56;13.40;99.90
22130;DHT22;11231;50.746;4.272;2023-12-28T13:23:22;13.30;99.90
22130;DHT22;11231;50.746;4.272;2023-12-28T13:25:48;13.20;99.90
22130;DHT22;11231;50.746;4.272;2023-12-28T13:28:13;13.20;99.90
22130;DHT22;11231;50.746;4.272;2023-12-28T13:30:41;13.20;99.90
22130;DHT22;11231;50.746;4.272;2023-12-28T13:33:07;13.20;99.90
22130;DHT22;11231;50.746;4.272;2023-12-28T13:35:32;13.20;99.90
22130;DHT22;11231;50.746;4.272;2023-12-28T13:38:01;13.20;99.90
22130;DHT22;11231;50.746;4.272;2023-12-28T13:40:28;13.30;99.90
22130;DHT22;11231;50.746;4.272;2023-12-28T13:42:54;13.30;99.90
22130;DHT22;11231;50.746;4.272;2023-12-28T13:45:19;13.20;99.90
22130;DHT22;11231;50.746;4.272;2023-12-28T13:47:45;13.20;99.90
22130;DHT22;11231;50.746;4.272;2023-12-28T13:50:11;13.20;99.90
22130;DHT22;11231;50.746;4.272;2023-12-28T13:52:37;13.20;99.90
22130;DHT22;11231;50.746;4.272;2023-12-28T13:55:02;13.10;99.90
22130;DHT22;11231;50.746;4.272;2023-12-28T13:57:28;13.20;99.90
22130;DHT22;11231;50.746;4.272;2023-12-28T13:59:54;13.30;99.90
22130;DHT22;11231;50.746;4.272;2023-12-28T14:02:22;13.20;99.90
22130;DHT22;11231;50.746;4.272;2023-12-28T14:04:48;13.20;99.90
22130;DHT22;11231;50.746;4.272;2023-12-28T14:07:14;13.10;99.90
22130;DHT22;11231;50.746;4.272;2023-12-28T14:09:40;13.20;99.90
22130;DHT22;11231;50.746;4.272;2023-12-28T14:12:06;13.20;99.90
22130;DHT22;11231;50.746;4.272;2023-12-28T14:14:31;13.30;99.90
22130;DHT22;11231;50.746;4.272;2023-12-28T14:16:57;13.20;99.90
22130;DHT22;11231;50.746;4.272;2023-12-28T14:19:23;13.20;99.90
22130;DHT22;11231;50.746;4.272;2023-12-28T14:21:49;13.20;99.90
22130;DHT22;11231;50.746;4.272;2023-12-28T14:24:16;13.20;99.90
22130;DHT22;11231;50.746;4.272;2023-12-28T14:26:44;13.10;99.90
22130;DHT22;11231;50.746;4.272;2023-12-28T14:29:11;13.20;99.90
22130;DHT22;11231;50.746;4.272;2023-12-28T14:31:37;13.00;99.90
22130;DHT22;11231;50.746;4.272;2023-12-28T14:34:03;13.00;99.90
22130;DHT22;11231;50.746;4.272;2023-12-28T14:36:36;13.00;99.90
22130;DHT22;11231;50.746;4.272;2023-12-28T14:39:07;12.90;99.90
22130;DHT22;11231;50.746;4.272;2023-12-28T14:41:34;12.90;99.90
22130;DHT22;11231;50.746;4.272;2023-12-28T14:44:00;12.80;99.90
22130;DHT22;11231;50.746;4.272;2023-12-28T14:46:26;12.80;99.90
22130;DHT22;11231;50.746;4.272;2023-12-28T14:48:53;12.80;99.90
22130;DHT22;11231;50.746;4.272;2023-12-28T14:51:19;12.70;99.90
22130;DHT22;11231;50.746;4.272;2023-12-28T14:53:45;12.60;99.90
22130;DHT22;11231;50.746;4.272;2023-12-28T14:56:11;12.60;99.90
22130;DHT22;11231;50.746;4.272;2023-12-28T14:58:38;12.70;99.90
22130;DHT22;11231;50.746;4.272;2023-12-28T15:01:04;12.70;99.90
22130;DHT22;11231;50.746;4.272;2023-12-28T15:03:30;12.70;99.90
22130;DHT22;11231;50.746;4.272;2023-12-28T15:05:56;12.70;99.90
22130;DHT22;11231;50.746;4.272;2023-12-28T15:08:23;12.70;99.90
22130;DHT22;11231;50.746;4.272;2023-12-28T15:10:52;12.60;99.90
22130;DHT22;11231;50.746;4.272;2023-12-28T15:13:18;12.60;99.90
22130;DHT22;11231;50.746;4.272;2023-12-28T15:15:44;12.60;99.90
22130;DHT22;11231;50.746;4.272;2023-12-28T15:18:11;12.60;99.90
22130;DHT22;11231;50.746;4.272;2023-12-28T15:20:37;12.50;99.90
22130;DHT22;11231;50.746;4.272;2023-12-28T15:23:03;12.50;99.90
22130;DHT22;11231;50.746;4.272;2023-12-28T15:25:28;12.50;99.90
22130;DHT22;11231;50.746;4.272;2023-12-28T15:27:54;12.40;99.90